Página principal
METAR-TAF:

METAR-TAF

Aeroportos :

Aeroporto Internacional de Mashhad

Meshed, Irão

latitude: 36-16N, longitude: 059-38E, altura: 989 m

Observação actual do tempo

O boletim foi feito há 22 minutos, às 00:00 UTC
Vento 4 kt de oes-noroeste
Temperatura 5°C
Humidade 41%
Pressão 1025 hPa
Visibilidade 10 km ou mais
sem nuvens abaixo de 1500 metros e sem cumulonimbus

METAR: OIMM 180000Z 29004KT CAVOK 05/M07 Q1024 A3026

Hora: 03:52 (00:22 UTC)

Previsão

O boletim foi feito há 52 minutos, às 23:30 UTC
Previsão válida de 18 às 00 UTC a 19 às 06 UTC
Vento 8 kt de su-sudeste
Visibilidade: 7000 m
Poucas nuvensa uma altura de 4000 ft
Temporariamente
de 18 às 09 UTC a 18 às 15 UTC
Vento 14 kt de es-sudeste

TAF: OIMM 172330Z 1800/1906 15004MPS 7000 FEW040 TEMPO 1809/1815 12007MPS

Observações e previsões do tempo de mais de 4000 aeroportos (mensagens METAR e TAF).

As estações disponíveis são os pontos amarelos e vermelhos sobre o mapa.

Mova o rato sobre o mapa para ver o nome da estação.

Depois clique no ponto para visualizar as observações e previsões meteorológicas.

Para alterar o mapa : clique nos botões verdes com uma cruz preta para aumentar o zoom; no botão verde com uma pitada de zoom; ou nas setas verdes para mapas adjacentes.


METAR-TAF: